sensor_id;sensor_type;location;lat;lon;timestamp;P1;durP1;ratioP1;P2;durP2;ratioP2
76113;SDS011;64845;53.086;5.834;2022-11-20T00:00:53;14.20;;;8.82;;
76113;SDS011;64845;53.086;5.834;2022-11-20T00:03:18;17.63;;;8.73;;
76113;SDS011;64845;53.086;5.834;2022-11-20T00:05:44;14.18;;;8.88;;
76113;SDS011;64845;53.086;5.834;2022-11-20T00:08:10;13.13;;;8.43;;
76113;SDS011;64845;53.086;5.834;2022-11-20T00:10:36;12.45;;;7.90;;
76113;SDS011;64845;53.086;5.834;2022-11-20T00:13:02;15.07;;;9.05;;
76113;SDS011;64845;53.086;5.834;2022-11-20T00:15:27;13.88;;;8.77;;
76113;SDS011;64845;53.086;5.834;2022-11-20T00:17:53;15.07;;;9.13;;
76113;SDS011;64845;53.086;5.834;2022-11-20T00:20:18;14.00;;;8.82;;
76113;SDS011;64845;53.086;5.834;2022-11-20T00:22:43;15.60;;;9.35;;
76113;SDS011;64845;53.086;5.834;2022-11-20T00:25:09;15.07;;;8.50;;
76113;SDS011;64845;53.086;5.834;2022-11-20T00:27:34;16.33;;;9.40;;
76113;SDS011;64845;53.086;5.834;2022-11-20T00:30:00;13.65;;;9.20;;
76113;SDS011;64845;53.086;5.834;2022-11-20T00:32:26;14.75;;;9.02;;
76113;SDS011;64845;53.086;5.834;2022-11-20T00:34:51;13.98;;;8.95;;
76113;SDS011;64845;53.086;5.834;2022-11-20T00:37:16;13.98;;;9.40;;
76113;SDS011;64845;53.086;5.834;2022-11-20T00:39:42;15.30;;;9.50;;
76113;SDS011;64845;53.086;5.834;2022-11-20T00:42:07;15.25;;;8.68;;
76113;SDS011;64845;53.086;5.834;2022-11-20T00:44:32;16.27;;;9.48;;
76113;SDS011;64845;53.086;5.834;2022-11-20T00:46:58;13.00;;;8.95;;
76113;SDS011;64845;53.086;5.834;2022-11-20T00:49:23;13.90;;;9.18;;
76113;SDS011;64845;53.086;5.834;2022-11-20T00:51:48;12.18;;;8.32;;
76113;SDS011;64845;53.086;5.834;2022-11-20T00:54:14;12.60;;;8.57;;
76113;SDS011;64845;53.086;5.834;2022-11-20T00:56:39;14.07;;;8.82;;
76113;SDS011;64845;53.086;5.834;2022-11-20T00:59:05;13.38;;;9.35;;
76113;SDS011;64845;53.086;5.834;2022-11-20T01:01:30;13.35;;;8.75;;
76113;SDS011;64845;53.086;5.834;2022-11-20T01:03:57;14.10;;;8.98;;
76113;SDS011;64845;53.086;5.834;2022-11-20T01:06:25;14.68;;;8.27;;
76113;SDS011;64845;53.086;5.834;2022-11-20T01:08:55;13.15;;;8.18;;
76113;SDS011;64845;53.086;5.834;2022-11-20T01:11:23;13.90;;;8.68;;
76113;SDS011;64845;53.086;5.834;2022-11-20T01:13:51;14.45;;;8.27;;
76113;SDS011;64845;53.086;5.834;2022-11-20T01:16:19;13.75;;;8.35;;
76113;SDS011;64845;53.086;5.834;2022-11-20T01:18:45;13.48;;;8.85;;
76113;SDS011;64845;53.086;5.834;2022-11-20T01:21:14;13.10;;;8.38;;
76113;SDS011;64845;53.086;5.834;2022-11-20T01:23:41;13.30;;;9.00;;
76113;SDS011;64845;53.086;5.834;2022-11-20T01:26:27;13.77;;;8.50;;
76113;SDS011;64845;53.086;5.834;2022-11-20T01:28:54;17.25;;;8.80;;
76113;SDS011;64845;53.086;5.834;2022-11-20T01:31:30;12.35;;;7.90;;
76113;SDS011;64845;53.086;5.834;2022-11-20T01:33:58;12.52;;;7.90;;
76113;SDS011;64845;53.086;5.834;2022-11-20T01:36:27;15.32;;;9.10;;
76113;SDS011;64845;53.086;5.834;2022-11-20T01:38:58;17.95;;;8.80;;
76113;SDS011;64845;53.086;5.834;2022-11-20T01:41:27;13.07;;;7.15;;
76113;SDS011;64845;53.086;5.834;2022-11-20T01:44:13;13.93;;;7.85;;
76113;SDS011;64845;53.086;5.834;2022-11-20T01:46:42;14.63;;;8.50;;
76113;SDS011;64845;53.086;5.834;2022-11-20T01:49:19;14.10;;;8.45;;
76113;SDS011;64845;53.086;5.834;2022-11-20T01:51:50;13.30;;;7.53;;
76113;SDS011;64845;53.086;5.834;2022-11-20T01:56:48;13.55;;;7.32;;
76113;SDS011;64845;53.086;5.834;2022-11-20T01:59:17;12.45;;;7.50;;
76113;SDS011;64845;53.086;5.834;2022-11-20T02:01:45;15.98;;;8.90;;
76113;SDS011;64845;53.086;5.834;2022-11-20T02:04:11;12.63;;;8.25;;
76113;SDS011;64845;53.086;5.834;2022-11-20T02:06:45;13.18;;;7.97;;
76113;SDS011;64845;53.086;5.834;2022-11-20T02:09:15;15.27;;;7.72;;
76113;SDS011;64845;53.086;5.834;2022-11-20T02:11:41;12.80;;;7.63;;
76113;SDS011;64845;53.086;5.834;2022-11-20T02:14:06;14.15;;;8.02;;
76113;SDS011;64845;53.086;5.834;2022-11-20T02:16:34;13.13;;;8.43;;
76113;SDS011;64845;53.086;5.834;2022-11-20T02:19:03;11.65;;;8.00;;
76113;SDS011;64845;53.086;5.834;2022-11-20T02:21:43;13.23;;;7.32;;
76113;SDS011;64845;53.086;5.834;2022-11-20T02:24:16;13.20;;;7.72;;
76113;SDS011;64845;53.086;5.834;2022-11-20T02:29:18;11.13;;;7.63;;
76113;SDS011;64845;53.086;5.834;2022-11-20T02:31:48;13.05;;;8.48;;
76113;SDS011;64845;53.086;5.834;2022-11-20T02:34:14;11.70;;;7.10;;
76113;SDS011;64845;53.086;5.834;2022-11-20T02:36:39;14.40;;;7.72;;
76113;SDS011;64845;53.086;5.834;2022-11-20T02:39:07;13.25;;;7.78;;
76113;SDS011;64845;53.086;5.834;2022-11-20T02:41:37;11.52;;;7.40;;
76113;SDS011;64845;53.086;5.834;2022-11-20T02:44:03;13.50;;;8.13;;
76113;SDS011;64845;53.086;5.834;2022-11-20T02:46:30;12.65;;;8.15;;
76113;SDS011;64845;53.086;5.834;2022-11-20T02:48:56;11.25;;;7.22;;
76113;SDS011;64845;53.086;5.834;2022-11-20T02:51:21;12.95;;;7.82;;
76113;SDS011;64845;53.086;5.834;2022-11-20T02:53:47;12.15;;;7.10;;
76113;SDS011;64845;53.086;5.834;2022-11-20T02:56:12;12.93;;;7.60;;
76113;SDS011;64845;53.086;5.834;2022-11-20T02:58:38;11.43;;;7.53;;
76113;SDS011;64845;53.086;5.834;2022-11-20T03:01:03;10.98;;;7.55;;
76113;SDS011;64845;53.086;5.834;2022-11-20T03:03:28;12.90;;;8.23;;
76113;SDS011;64845;53.086;5.834;2022-11-20T03:05:54;13.77;;;7.82;;
76113;SDS011;64845;53.086;5.834;2022-11-20T03:08:19;11.48;;;7.45;;
76113;SDS011;64845;53.086;5.834;2022-11-20T03:10:44;11.90;;;8.05;;
76113;SDS011;64845;53.086;5.834;2022-11-20T03:13:10;11.75;;;7.90;;
76113;SDS011;64845;53.086;5.834;2022-11-20T03:15:36;14.10;;;8.32;;
76113;SDS011;64845;53.086;5.834;2022-11-20T03:18:02;14.85;;;8.90;;
76113;SDS011;64845;53.086;5.834;2022-11-20T03:20:28;13.23;;;7.78;;
76113;SDS011;64845;53.086;5.834;2022-11-20T03:22:54;12.38;;;8.15;;
76113;SDS011;64845;53.086;5.834;2022-11-20T03:25:20;12.55;;;8.45;;
76113;SDS011;64845;53.086;5.834;2022-11-20T03:27:46;12.57;;;8.10;;
76113;SDS011;64845;53.086;5.834;2022-11-20T03:30:12;18.10;;;8.65;;
76113;SDS011;64845;53.086;5.834;2022-11-20T03:32:38;14.57;;;8.63;;
76113;SDS011;64845;53.086;5.834;2022-11-20T03:35:03;16.90;;;9.23;;
76113;SDS011;64845;53.086;5.834;2022-11-20T03:37:29;14.75;;;8.70;;
76113;SDS011;64845;53.086;5.834;2022-11-20T03:39:54;14.45;;;8.73;;
76113;SDS011;64845;53.086;5.834;2022-11-20T03:42:19;11.45;;;7.82;;
76113;SDS011;64845;53.086;5.834;2022-11-20T03:45:03;13.40;;;8.10;;
76113;SDS011;64845;53.086;5.834;2022-11-20T03:47:29;14.73;;;8.93;;
76113;SDS011;64845;53.086;5.834;2022-11-20T03:49:54;12.85;;;8.60;;
76113;SDS011;64845;53.086;5.834;2022-11-20T03:52:20;14.82;;;8.82;;
76113;SDS011;64845;53.086;5.834;2022-11-20T03:54:45;13.60;;;8.68;;
76113;SDS011;64845;53.086;5.834;2022-11-20T03:57:10;13.10;;;8.82;;
76113;SDS011;64845;53.086;5.834;2022-11-20T03:59:36;13.70;;;9.23;;
76113;SDS011;64845;53.086;5.834;2022-11-20T04:02:01;16.33;;;9.38;;
76113;SDS011;64845;53.086;5.834;2022-11-20T04:04:26;15.15;;;9.13;;
76113;SDS011;64845;53.086;5.834;2022-11-20T04:06:52;13.10;;;8.23;;
76113;SDS011;64845;53.086;5.834;2022-11-20T04:09:17;13.30;;;8.70;;
76113;SDS011;64845;53.086;5.834;2022-11-20T04:11:42;14.23;;;8.68;;
76113;SDS011;64845;53.086;5.834;2022-11-20T04:14:14;11.50;;;7.28;;
76113;SDS011;64845;53.086;5.834;2022-11-20T04:16:40;16.65;;;8.65;;
76113;SDS011;64845;53.086;5.834;2022-11-20T04:19:09;14.25;;;8.88;;
76113;SDS011;64845;53.086;5.834;2022-11-20T04:21:36;15.88;;;8.98;;
76113;SDS011;64845;53.086;5.834;2022-11-20T04:24:02;12.88;;;8.30;;
76113;SDS011;64845;53.086;5.834;2022-11-20T04:26:27;13.00;;;8.10;;
76113;SDS011;64845;53.086;5.834;2022-11-20T04:28:54;15.02;;;8.48;;
76113;SDS011;64845;53.086;5.834;2022-11-20T04:31:21;11.77;;;8.60;;
76113;SDS011;64845;53.086;5.834;2022-11-20T04:33:49;15.07;;;7.88;;
76113;SDS011;64845;53.086;5.834;2022-11-20T04:36:25;11.77;;;7.78;;
76113;SDS011;64845;53.086;5.834;2022-11-20T04:38:53;15.18;;;9.07;;
76113;SDS011;64845;53.086;5.834;2022-11-20T04:41:19;12.85;;;8.30;;
76113;SDS011;64845;53.086;5.834;2022-11-20T04:43:46;10.88;;;7.65;;
76113;SDS011;64845;53.086;5.834;2022-11-20T04:46:13;14.43;;;8.02;;
76113;SDS011;64845;53.086;5.834;2022-11-20T04:48:39;14.10;;;8.70;;
76113;SDS011;64845;53.086;5.834;2022-11-20T04:51:04;15.07;;;8.13;;
76113;SDS011;64845;53.086;5.834;2022-11-20T04:53:30;13.55;;;7.72;;
76113;SDS011;64845;53.086;5.834;2022-11-20T04:55:59;13.65;;;8.57;;
76113;SDS011;64845;53.086;5.834;2022-11-20T04:58:26;15.73;;;8.95;;
76113;SDS011;64845;53.086;5.834;2022-11-20T05:00:51;12.70;;;8.30;;
76113;SDS011;64845;53.086;5.834;2022-11-20T05:03:16;14.43;;;7.82;;
76113;SDS011;64845;53.086;5.834;2022-11-20T05:05:42;13.00;;;8.50;;
76113;SDS011;64845;53.086;5.834;2022-11-20T05:08:07;11.63;;;7.90;;
76113;SDS011;64845;53.086;5.834;2022-11-20T05:10:32;16.25;;;8.05;;
76113;SDS011;64845;53.086;5.834;2022-11-20T05:12:58;12.40;;;8.25;;
76113;SDS011;64845;53.086;5.834;2022-11-20T05:15:23;13.63;;;7.60;;
76113;SDS011;64845;53.086;5.834;2022-11-20T05:17:49;13.77;;;8.15;;
76113;SDS011;64845;53.086;5.834;2022-11-20T05:20:16;13.10;;;8.05;;
76113;SDS011;64845;53.086;5.834;2022-11-20T05:22:42;13.73;;;8.52;;
76113;SDS011;64845;53.086;5.834;2022-11-20T05:25:08;11.60;;;8.05;;
76113;SDS011;64845;53.086;5.834;2022-11-20T05:27:33;12.52;;;8.57;;
76113;SDS011;64845;53.086;5.834;2022-11-20T05:29:58;14.27;;;8.98;;
76113;SDS011;64845;53.086;5.834;2022-11-20T05:32:24;12.10;;;7.72;;
76113;SDS011;64845;53.086;5.834;2022-11-20T05:34:50;14.30;;;7.45;;
76113;SDS011;64845;53.086;5.834;2022-11-20T05:37:18;17.27;;;8.13;;
76113;SDS011;64845;53.086;5.834;2022-11-20T05:39:44;13.88;;;8.50;;
76113;SDS011;64845;53.086;5.834;2022-11-20T05:42:09;12.15;;;7.97;;
76113;SDS011;64845;53.086;5.834;2022-11-20T05:44:53;13.07;;;7.68;;
76113;SDS011;64845;53.086;5.834;2022-11-20T05:47:18;12.75;;;7.90;;
76113;SDS011;64845;53.086;5.834;2022-11-20T05:49:44;11.15;;;7.32;;
76113;SDS011;64845;53.086;5.834;2022-11-20T05:52:09;15.30;;;8.13;;
76113;SDS011;64845;53.086;5.834;2022-11-20T05:54:34;18.58;;;9.98;;
76113;SDS011;64845;53.086;5.834;2022-11-20T05:57:00;12.65;;;7.32;;
76113;SDS011;64845;53.086;5.834;2022-11-20T05:59:25;11.13;;;7.65;;
76113;SDS011;64845;53.086;5.834;2022-11-20T06:01:50;12.00;;;8.02;;
76113;SDS011;64845;53.086;5.834;2022-11-20T06:04:16;11.05;;;7.60;;
76113;SDS011;64845;53.086;5.834;2022-11-20T06:06:41;12.10;;;8.50;;
76113;SDS011;64845;53.086;5.834;2022-11-20T06:09:06;14.00;;;8.30;;
76113;SDS011;64845;53.086;5.834;2022-11-20T06:11:32;12.23;;;8.40;;
76113;SDS011;64845;53.086;5.834;2022-11-20T06:13:57;15.05;;;8.63;;
76113;SDS011;64845;53.086;5.834;2022-11-20T06:16:23;15.55;;;9.45;;
76113;SDS011;64845;53.086;5.834;2022-11-20T06:18:48;13.43;;;8.38;;
76113;SDS011;64845;53.086;5.834;2022-11-20T06:21:17;12.85;;;8.30;;
76113;SDS011;64845;53.086;5.834;2022-11-20T06:23:44;14.30;;;8.88;;
76113;SDS011;64845;53.086;5.834;2022-11-20T06:26:11;13.60;;;8.15;;
76113;SDS011;64845;53.086;5.834;2022-11-20T06:28:39;14.93;;;8.45;;
76113;SDS011;64845;53.086;5.834;2022-11-20T06:31:05;14.70;;;8.63;;
76113;SDS011;64845;53.086;5.834;2022-11-20T06:33:31;14.93;;;8.63;;
76113;SDS011;64845;53.086;5.834;2022-11-20T06:35:57;14.68;;;8.88;;
76113;SDS011;64845;53.086;5.834;2022-11-20T06:38:26;12.57;;;7.85;;
76113;SDS011;64845;53.086;5.834;2022-11-20T06:40:53;16.10;;;9.05;;
76113;SDS011;64845;53.086;5.834;2022-11-20T06:43:18;11.93;;;8.07;;
76113;SDS011;64845;53.086;5.834;2022-11-20T06:45:44;13.55;;;8.85;;
76113;SDS011;64845;53.086;5.834;2022-11-20T06:48:09;12.20;;;8.73;;
76113;SDS011;64845;53.086;5.834;2022-11-20T06:50:38;13.55;;;8.50;;
76113;SDS011;64845;53.086;5.834;2022-11-20T06:53:04;15.07;;;8.73;;
76113;SDS011;64845;53.086;5.834;2022-11-20T06:55:30;16.15;;;8.15;;
76113;SDS011;64845;53.086;5.834;2022-11-20T06:57:56;15.50;;;9.25;;
76113;SDS011;64845;53.086;5.834;2022-11-20T07:00:22;15.40;;;9.15;;
76113;SDS011;64845;53.086;5.834;2022-11-20T07:02:48;15.30;;;8.40;;
76113;SDS011;64845;53.086;5.834;2022-11-20T07:05:13;14.57;;;8.95;;
76113;SDS011;64845;53.086;5.834;2022-11-20T07:07:39;15.32;;;9.13;;
76113;SDS011;64845;53.086;5.834;2022-11-20T07:10:04;14.35;;;9.02;;
76113;SDS011;64845;53.086;5.834;2022-11-20T07:12:30;16.15;;;9.07;;
76113;SDS011;64845;53.086;5.834;2022-11-20T07:14:55;18.25;;;9.40;;
76113;SDS011;64845;53.086;5.834;2022-11-20T07:17:21;14.43;;;9.38;;
76113;SDS011;64845;53.086;5.834;2022-11-20T07:19:46;15.43;;;9.07;;
76113;SDS011;64845;53.086;5.834;2022-11-20T07:22:12;14.77;;;9.05;;
76113;SDS011;64845;53.086;5.834;2022-11-20T07:24:38;13.05;;;8.65;;
76113;SDS011;64845;53.086;5.834;2022-11-20T07:27:04;14.75;;;8.80;;
76113;SDS011;64845;53.086;5.834;2022-11-20T07:29:29;16.23;;;9.18;;
76113;SDS011;64845;53.086;5.834;2022-11-20T07:31:54;13.65;;;8.60;;
76113;SDS011;64845;53.086;5.834;2022-11-20T07:34:21;14.50;;;9.73;;
76113;SDS011;64845;53.086;5.834;2022-11-20T07:36:46;16.10;;;9.55;;
76113;SDS011;64845;53.086;5.834;2022-11-20T07:39:15;14.10;;;9.02;;
76113;SDS011;64845;53.086;5.834;2022-11-20T07:41:50;18.35;;;10.13;;
76113;SDS011;64845;53.086;5.834;2022-11-20T07:44:15;13.82;;;8.50;;
76113;SDS011;64845;53.086;5.834;2022-11-20T07:46:40;16.23;;;8.88;;
76113;SDS011;64845;53.086;5.834;2022-11-20T07:49:05;15.57;;;8.98;;
76113;SDS011;64845;53.086;5.834;2022-11-20T07:51:31;13.40;;;8.57;;
76113;SDS011;64845;53.086;5.834;2022-11-20T07:53:56;12.73;;;8.15;;
76113;SDS011;64845;53.086;5.834;2022-11-20T07:56:22;13.93;;;7.97;;
76113;SDS011;64845;53.086;5.834;2022-11-20T07:58:47;14.02;;;9.32;;
76113;SDS011;64845;53.086;5.834;2022-11-20T08:01:13;13.77;;;8.98;;
76113;SDS011;64845;53.086;5.834;2022-11-20T08:03:38;14.70;;;9.07;;
76113;SDS011;64845;53.086;5.834;2022-11-20T08:06:04;13.93;;;8.65;;
76113;SDS011;64845;53.086;5.834;2022-11-20T08:08:29;12.93;;;8.27;;
76113;SDS011;64845;53.086;5.834;2022-11-20T08:10:58;13.57;;;8.90;;
76113;SDS011;64845;53.086;5.834;2022-11-20T08:13:42;14.68;;;8.68;;
76113;SDS011;64845;53.086;5.834;2022-11-20T08:16:26;15.80;;;9.38;;
76113;SDS011;64845;53.086;5.834;2022-11-20T08:18:52;18.10;;;9.63;;
76113;SDS011;64845;53.086;5.834;2022-11-20T08:21:17;14.82;;;9.52;;
76113;SDS011;64845;53.086;5.834;2022-11-20T08:23:42;15.13;;;10.02;;
76113;SDS011;64845;53.086;5.834;2022-11-20T08:26:08;18.73;;;10.43;;
76113;SDS011;64845;53.086;5.834;2022-11-20T08:28:33;15.48;;;9.68;;
76113;SDS011;64845;53.086;5.834;2022-11-20T08:30:59;13.85;;;9.52;;
76113;SDS011;64845;53.086;5.834;2022-11-20T08:33:25;17.33;;;9.43;;
76113;SDS011;64845;53.086;5.834;2022-11-20T08:35:50;15.85;;;9.35;;
76113;SDS011;64845;53.086;5.834;2022-11-20T08:38:16;16.33;;;8.98;;
76113;SDS011;64845;53.086;5.834;2022-11-20T08:40:41;14.57;;;8.50;;
76113;SDS011;64845;53.086;5.834;2022-11-20T08:43:27;14.57;;;8.88;;
76113;SDS011;64845;53.086;5.834;2022-11-20T08:45:52;15.75;;;8.85;;
76113;SDS011;64845;53.086;5.834;2022-11-20T08:48:17;18.23;;;9.30;;
76113;SDS011;64845;53.086;5.834;2022-11-20T08:50:43;15.75;;;9.50;;
76113;SDS011;64845;53.086;5.834;2022-11-20T08:53:08;11.50;;;8.02;;
76113;SDS011;64845;53.086;5.834;2022-11-20T08:55:33;15.15;;;9.80;;
76113;SDS011;64845;53.086;5.834;2022-11-20T08:58:04;18.95;;;9.98;;
76113;SDS011;64845;53.086;5.834;2022-11-20T09:00:30;16.70;;;9.13;;
76113;SDS011;64845;53.086;5.834;2022-11-20T09:02:57;16.05;;;8.65;;
76113;SDS011;64845;53.086;5.834;2022-11-20T09:05:23;15.65;;;8.95;;
76113;SDS011;64845;53.086;5.834;2022-11-20T09:07:49;14.40;;;9.20;;
76113;SDS011;64845;53.086;5.834;2022-11-20T09:10:14;28.27;;;9.70;;
76113;SDS011;64845;53.086;5.834;2022-11-20T09:12:39;12.52;;;8.25;;
76113;SDS011;64845;53.086;5.834;2022-11-20T09:15:05;16.08;;;9.38;;
76113;SDS011;64845;53.086;5.834;2022-11-20T09:17:31;14.38;;;9.38;;
76113;SDS011;64845;53.086;5.834;2022-11-20T09:19:56;15.15;;;8.75;;
76113;SDS011;64845;53.086;5.834;2022-11-20T09:22:21;16.17;;;9.43;;
76113;SDS011;64845;53.086;5.834;2022-11-20T09:24:47;16.85;;;9.98;;
76113;SDS011;64845;53.086;5.834;2022-11-20T09:27:12;15.25;;;9.55;;
76113;SDS011;64845;53.086;5.834;2022-11-20T09:29:37;12.93;;;8.85;;
76113;SDS011;64845;53.086;5.834;2022-11-20T09:32:03;16.80;;;9.32;;
76113;SDS011;64845;53.086;5.834;2022-11-20T09:34:28;15.15;;;9.75;;
76113;SDS011;64845;53.086;5.834;2022-11-20T09:36:54;15.93;;;9.25;;
76113;SDS011;64845;53.086;5.834;2022-11-20T09:39:19;16.08;;;8.90;;
76113;SDS011;64845;53.086;5.834;2022-11-20T09:55:38;14.25;;;8.48;;
76113;SDS011;64845;53.086;5.834;2022-11-20T09:58:15;13.68;;;8.55;;
76113;SDS011;64845;53.086;5.834;2022-11-20T10:00:50;16.65;;;9.15;;
76113;SDS011;64845;53.086;5.834;2022-11-20T10:03:19;22.45;;;10.40;;
76113;SDS011;64845;53.086;5.834;2022-11-20T10:05:54;17.92;;;10.27;;
76113;SDS011;64845;53.086;5.834;2022-11-20T10:08:24;16.65;;;9.27;;
76113;SDS011;64845;53.086;5.834;2022-11-20T10:13:48;15.35;;;8.32;;
76113;SDS011;64845;53.086;5.834;2022-11-20T10:18:48;10.63;;;7.88;;
76113;SDS011;64845;53.086;5.834;2022-11-20T10:26:49;11.43;;;6.88;;
76113;SDS011;64845;53.086;5.834;2022-11-20T10:29:35;11.32;;;6.72;;
76113;SDS011;64845;53.086;5.834;2022-11-20T10:32:04;10.27;;;6.75;;
76113;SDS011;64845;53.086;5.834;2022-11-20T10:34:50;10.68;;;6.28;;
76113;SDS011;64845;53.086;5.834;2022-11-20T10:37:26;11.80;;;6.07;;
76113;SDS011;64845;53.086;5.834;2022-11-20T10:40:00;8.10;;;5.28;;
76113;SDS011;64845;53.086;5.834;2022-11-20T10:42:37;8.40;;;5.60;;
76113;SDS011;64845;53.086;5.834;2022-11-20T10:47:48;7.05;;;5.05;;
76113;SDS011;64845;53.086;5.834;2022-11-20T10:50:17;7.03;;;5.28;;
76113;SDS011;64845;53.086;5.834;2022-11-20T10:55:53;7.00;;;5.10;;
76113;SDS011;64845;53.086;5.834;2022-11-20T10:58:36;7.65;;;5.60;;
76113;SDS011;64845;53.086;5.834;2022-11-20T11:01:17;7.38;;;5.10;;
76113;SDS011;64845;53.086;5.834;2022-11-20T11:03:46;6.75;;;4.50;;
76113;SDS011;64845;53.086;5.834;2022-11-20T11:09:04;7.25;;;4.95;;
76113;SDS011;64845;53.086;5.834;2022-11-20T11:11:37;8.07;;;5.35;;
76113;SDS011;64845;53.086;5.834;2022-11-20T11:14:10;8.15;;;5.93;;
76113;SDS011;64845;53.086;5.834;2022-11-20T11:16:48;8.50;;;5.80;;
76113;SDS011;64845;53.086;5.834;2022-11-20T11:19:21;7.47;;;5.20;;
76113;SDS011;64845;53.086;5.834;2022-11-20T11:21:56;9.60;;;5.47;;
76113;SDS011;64845;53.086;5.834;2022-11-20T11:24:23;10.52;;;6.18;;
76113;SDS011;64845;53.086;5.834;2022-11-20T11:26:55;9.48;;;6.10;;
76113;SDS011;64845;53.086;5.834;2022-11-20T11:29:22;8.88;;;5.82;;
76113;SDS011;64845;53.086;5.834;2022-11-20T11:31:48;8.73;;;5.85;;
76113;SDS011;64845;53.086;5.834;2022-11-20T11:34:15;8.38;;;5.57;;
76113;SDS011;64845;53.086;5.834;2022-11-20T11:36:42;18.67;;;5.97;;
76113;SDS011;64845;53.086;5.834;2022-11-20T11:39:20;8.85;;;5.80;;
76113;SDS011;64845;53.086;5.834;2022-11-20T11:41:46;9.18;;;5.38;;
76113;SDS011;64845;53.086;5.834;2022-11-20T11:46:59;9.27;;;5.57;;
76113;SDS011;64845;53.086;5.834;2022-11-20T11:49:25;8.23;;;5.60;;
76113;SDS011;64845;53.086;5.834;2022-11-20T11:54:37;9.25;;;5.50;;
76113;SDS011;64845;53.086;5.834;2022-11-20T11:57:05;6.53;;;4.95;;
76113;SDS011;64845;53.086;5.834;2022-11-20T12:13:01;8.75;;;5.55;;
76113;SDS011;64845;53.086;5.834;2022-11-20T12:15:29;8.48;;;5.80;;
76113;SDS011;64845;53.086;5.834;2022-11-20T12:17:56;8.93;;;5.90;;
76113;SDS011;64845;53.086;5.834;2022-11-20T12:20:24;8.15;;;5.35;;
76113;SDS011;64845;53.086;5.834;2022-11-20T12:23:00;6.55;;;5.00;;
76113;SDS011;64845;53.086;5.834;2022-11-20T12:25:35;9.70;;;6.57;;
76113;SDS011;64845;53.086;5.834;2022-11-20T12:36:25;10.27;;;6.13;;
76113;SDS011;64845;53.086;5.834;2022-11-20T12:39:02;8.02;;;6.15;;
76113;SDS011;64845;53.086;5.834;2022-11-20T12:41:53;9.15;;;5.90;;
76113;SDS011;64845;53.086;5.834;2022-11-20T12:50:34;11.65;;;6.95;;
76113;SDS011;64845;53.086;5.834;2022-11-20T12:53:04;9.45;;;6.20;;
76113;SDS011;64845;53.086;5.834;2022-11-20T12:58:25;11.35;;;6.20;;
76113;SDS011;64845;53.086;5.834;2022-11-20T13:07:04;9.40;;;6.15;;
76113;SDS011;64845;53.086;5.834;2022-11-20T13:09:32;8.65;;;5.95;;
76113;SDS011;64845;53.086;5.834;2022-11-20T13:20:02;9.52;;;6.07;;
76113;SDS011;64845;53.086;5.834;2022-11-20T13:22:50;11.27;;;6.32;;
76113;SDS011;64845;53.086;5.834;2022-11-20T13:25:32;9.00;;;6.10;;
76113;SDS011;64845;53.086;5.834;2022-11-20T13:28:00;8.80;;;6.00;;
76113;SDS011;64845;53.086;5.834;2022-11-20T13:30:29;9.52;;;6.28;;
76113;SDS011;64845;53.086;5.834;2022-11-20T13:32:57;9.98;;;6.32;;
76113;SDS011;64845;53.086;5.834;2022-11-20T13:35:29;12.52;;;6.95;;
76113;SDS011;64845;53.086;5.834;2022-11-20T13:38:03;17.00;;;9.85;;
76113;SDS011;64845;53.086;5.834;2022-11-20T13:40:29;30.77;;;13.65;;
76113;SDS011;64845;53.086;5.834;2022-11-20T13:43:08;13.80;;;8.35;;
76113;SDS011;64845;53.086;5.834;2022-11-20T13:45:41;18.05;;;9.88;;
76113;SDS011;64845;53.086;5.834;2022-11-20T13:48:23;16.38;;;9.80;;
76113;SDS011;64845;53.086;5.834;2022-11-20T13:56:08;11.75;;;6.93;;
76113;SDS011;64845;53.086;5.834;2022-11-20T14:01:32;11.70;;;7.93;;
76113;SDS011;64845;53.086;5.834;2022-11-20T14:03:59;14.70;;;8.00;;
76113;SDS011;64845;53.086;5.834;2022-11-20T14:06:33;14.65;;;9.07;;
76113;SDS011;64845;53.086;5.834;2022-11-20T14:09:04;10.95;;;8.00;;
76113;SDS011;64845;53.086;5.834;2022-11-20T14:11:29;15.18;;;8.23;;
76113;SDS011;64845;53.086;5.834;2022-11-20T14:14:03;17.00;;;11.23;;
76113;SDS011;64845;53.086;5.834;2022-11-20T14:16:31;12.15;;;7.25;;
76113;SDS011;64845;53.086;5.834;2022-11-20T14:19:11;14.18;;;8.20;;
76113;SDS011;64845;53.086;5.834;2022-11-20T14:21:45;12.65;;;8.20;;
76113;SDS011;64845;53.086;5.834;2022-11-20T14:24:12;13.40;;;7.53;;
76113;SDS011;64845;53.086;5.834;2022-11-20T14:26:42;10.05;;;7.18;;
76113;SDS011;64845;53.086;5.834;2022-11-20T14:29:22;10.07;;;7.05;;
76113;SDS011;64845;53.086;5.834;2022-11-20T14:31:53;11.25;;;6.88;;
76113;SDS011;64845;53.086;5.834;2022-11-20T14:34:27;10.55;;;7.22;;
76113;SDS011;64845;53.086;5.834;2022-11-20T14:36:57;9.70;;;7.15;;
76113;SDS011;64845;53.086;5.834;2022-11-20T14:39:29;13.20;;;8.27;;
76113;SDS011;64845;53.086;5.834;2022-11-20T14:41:57;10.88;;;7.65;;
76113;SDS011;64845;53.086;5.834;2022-11-20T14:44:30;10.35;;;6.68;;
76113;SDS011;64845;53.086;5.834;2022-11-20T14:46:58;10.93;;;7.20;;
76113;SDS011;64845;53.086;5.834;2022-11-20T14:49:26;10.68;;;6.90;;
76113;SDS011;64845;53.086;5.834;2022-11-20T14:51:59;9.63;;;6.15;;
76113;SDS011;64845;53.086;5.834;2022-11-20T14:54:43;15.65;;;8.07;;
76113;SDS011;64845;53.086;5.834;2022-11-20T14:57:28;11.95;;;7.85;;
76113;SDS011;64845;53.086;5.834;2022-11-20T15:02:41;9.05;;;6.35;;
76113;SDS011;64845;53.086;5.834;2022-11-20T15:05:08;11.15;;;7.15;;
76113;SDS011;64845;53.086;5.834;2022-11-20T15:07:37;12.57;;;7.05;;
76113;SDS011;64845;53.086;5.834;2022-11-20T15:10:12;10.00;;;7.22;;
76113;SDS011;64845;53.086;5.834;2022-11-20T15:12:47;11.60;;;7.07;;
76113;SDS011;64845;53.086;5.834;2022-11-20T15:15:16;9.43;;;6.85;;
76113;SDS011;64845;53.086;5.834;2022-11-20T15:17:46;11.40;;;7.38;;
76113;SDS011;64845;53.086;5.834;2022-11-20T15:20:13;11.30;;;6.78;;
76113;SDS011;64845;53.086;5.834;2022-11-20T15:22:41;11.85;;;7.72;;
76113;SDS011;64845;53.086;5.834;2022-11-20T15:25:16;10.02;;;7.10;;
76113;SDS011;64845;53.086;5.834;2022-11-20T15:27:43;10.50;;;6.93;;
76113;SDS011;64845;53.086;5.834;2022-11-20T15:30:13;9.32;;;6.38;;
76113;SDS011;64845;53.086;5.834;2022-11-20T15:32:41;8.10;;;6.43;;
76113;SDS011;64845;53.086;5.834;2022-11-20T15:35:07;9.43;;;6.72;;
76113;SDS011;64845;53.086;5.834;2022-11-20T15:37:33;9.82;;;6.85;;
76113;SDS011;64845;53.086;5.834;2022-11-20T15:39:58;11.25;;;7.20;;
76113;SDS011;64845;53.086;5.834;2022-11-20T15:42:23;10.02;;;6.88;;
76113;SDS011;64845;53.086;5.834;2022-11-20T15:44:49;9.02;;;6.32;;
76113;SDS011;64845;53.086;5.834;2022-11-20T15:47:14;10.85;;;7.28;;
76113;SDS011;64845;53.086;5.834;2022-11-20T15:49:42;10.65;;;6.07;;
76113;SDS011;64845;53.086;5.834;2022-11-20T15:52:08;12.35;;;7.78;;
76113;SDS011;64845;53.086;5.834;2022-11-20T15:54:34;10.15;;;6.72;;
76113;SDS011;64845;53.086;5.834;2022-11-20T15:56:59;8.35;;;6.22;;
76113;SDS011;64845;53.086;5.834;2022-11-20T15:59:25;12.32;;;6.93;;
76113;SDS011;64845;53.086;5.834;2022-11-20T16:01:51;10.52;;;7.30;;
76113;SDS011;64845;53.086;5.834;2022-11-20T16:04:16;8.93;;;6.82;;
76113;SDS011;64845;53.086;5.834;2022-11-20T16:06:43;9.52;;;6.95;;
76113;SDS011;64845;53.086;5.834;2022-11-20T16:09:08;11.38;;;6.53;;
76113;SDS011;64845;53.086;5.834;2022-11-20T16:11:34;9.77;;;6.60;;
76113;SDS011;64845;53.086;5.834;2022-11-20T16:14:01;13.13;;;7.03;;
76113;SDS011;64845;53.086;5.834;2022-11-20T16:16:46;11.43;;;7.03;;
76113;SDS011;64845;53.086;5.834;2022-11-20T16:19:12;10.45;;;7.10;;
76113;SDS011;64845;53.086;5.834;2022-11-20T16:21:38;11.65;;;8.00;;